sensor_id;sensor_type;location;lat;lon;timestamp;P1;durP1;ratioP1;P2;durP2;ratioP2
20639;SDS011;10479;53.524;9.846;2023-04-25T00:07:30;16.00;;;5.70;;
20639;SDS011;10479;53.524;9.846;2023-04-25T00:09:56;18.45;;;5.72;;
20639;SDS011;10479;53.524;9.846;2023-04-25T00:12:21;15.63;;;5.78;;
20639;SDS011;10479;53.524;9.846;2023-04-25T00:14:48;20.63;;;5.43;;
20639;SDS011;10479;53.524;9.846;2023-04-25T00:17:14;18.15;;;4.72;;
20639;SDS011;10479;53.524;9.846;2023-04-25T00:19:41;19.88;;;5.05;;
20639;SDS011;10479;53.524;9.846;2023-04-25T00:22:07;17.50;;;4.00;;
20639;SDS011;10479;53.524;9.846;2023-04-25T00:24:32;22.80;;;4.70;;
20639;SDS011;10479;53.524;9.846;2023-04-25T00:26:58;24.65;;;4.93;;
20639;SDS011;10479;53.524;9.846;2023-04-25T00:29:23;29.00;;;4.78;;
20639;SDS011;10479;53.524;9.846;2023-04-25T00:31:50;18.95;;;3.90;;
20639;SDS011;10479;53.524;9.846;2023-04-25T00:34:15;23.88;;;4.53;;
20639;SDS011;10479;53.524;9.846;2023-04-25T00:36:40;24.73;;;5.60;;
20639;SDS011;10479;53.524;9.846;2023-04-25T00:39:06;23.42;;;4.70;;
20639;SDS011;10479;53.524;9.846;2023-04-25T00:41:31;29.65;;;5.93;;
20639;SDS011;10479;53.524;9.846;2023-04-25T00:43:57;30.13;;;4.75;;
20639;SDS011;10479;53.524;9.846;2023-04-25T00:46:24;21.35;;;4.10;;
20639;SDS011;10479;53.524;9.846;2023-04-25T00:48:49;21.80;;;4.38;;
20639;SDS011;10479;53.524;9.846;2023-04-25T00:51:21;29.27;;;4.85;;
20639;SDS011;10479;53.524;9.846;2023-04-25T00:53:47;33.40;;;5.03;;
20639;SDS011;10479;53.524;9.846;2023-04-25T00:56:14;23.50;;;3.65;;
20639;SDS011;10479;53.524;9.846;2023-04-25T00:58:40;33.15;;;3.72;;
20639;SDS011;10479;53.524;9.846;2023-04-25T01:01:07;35.00;;;4.43;;
20639;SDS011;10479;53.524;9.846;2023-04-25T01:03:33;27.92;;;4.53;;
20639;SDS011;10479;53.524;9.846;2023-04-25T01:06:01;23.02;;;4.28;;
20639;SDS011;10479;53.524;9.846;2023-04-25T01:08:27;28.35;;;3.97;;
20639;SDS011;10479;53.524;9.846;2023-04-25T01:10:52;28.38;;;4.43;;
20639;SDS011;10479;53.524;9.846;2023-04-25T01:13:18;27.17;;;4.18;;
20639;SDS011;10479;53.524;9.846;2023-04-25T01:15:43;17.48;;;3.60;;
20639;SDS011;10479;53.524;9.846;2023-04-25T01:18:09;23.83;;;3.75;;
20639;SDS011;10479;53.524;9.846;2023-04-25T01:20:35;23.27;;;3.60;;
20639;SDS011;10479;53.524;9.846;2023-04-25T01:23:02;33.40;;;4.13;;
20639;SDS011;10479;53.524;9.846;2023-04-25T01:25:28;31.52;;;4.82;;
20639;SDS011;10479;53.524;9.846;2023-04-25T01:27:54;30.80;;;4.70;;
20639;SDS011;10479;53.524;9.846;2023-04-25T01:30:20;29.90;;;4.78;;
20639;SDS011;10479;53.524;9.846;2023-04-25T01:32:45;35.97;;;4.80;;
20639;SDS011;10479;53.524;9.846;2023-04-25T01:35:13;30.77;;;4.38;;
20639;SDS011;10479;53.524;9.846;2023-04-25T01:37:39;27.52;;;4.53;;
20639;SDS011;10479;53.524;9.846;2023-04-25T01:40:06;36.80;;;4.30;;
20639;SDS011;10479;53.524;9.846;2023-04-25T01:42:32;29.40;;;4.25;;
20639;SDS011;10479;53.524;9.846;2023-04-25T01:44:59;26.83;;;4.00;;
20639;SDS011;10479;53.524;9.846;2023-04-25T01:47:24;27.17;;;4.68;;
20639;SDS011;10479;53.524;9.846;2023-04-25T01:49:50;44.15;;;4.78;;
20639;SDS011;10479;53.524;9.846;2023-04-25T01:52:16;34.58;;;4.30;;
20639;SDS011;10479;53.524;9.846;2023-04-25T01:54:41;36.47;;;4.93;;
20639;SDS011;10479;53.524;9.846;2023-04-25T01:57:12;21.38;;;4.07;;
20639;SDS011;10479;53.524;9.846;2023-04-25T01:59:38;27.55;;;4.80;;
20639;SDS011;10479;53.524;9.846;2023-04-25T02:02:04;37.00;;;4.35;;
20639;SDS011;10479;53.524;9.846;2023-04-25T02:04:30;34.45;;;4.78;;
20639;SDS011;10479;53.524;9.846;2023-04-25T02:06:55;25.88;;;4.70;;
20639;SDS011;10479;53.524;9.846;2023-04-25T02:09:21;28.58;;;3.72;;
20639;SDS011;10479;53.524;9.846;2023-04-25T02:11:46;24.88;;;3.90;;
20639;SDS011;10479;53.524;9.846;2023-04-25T02:14:12;25.50;;;3.70;;
20639;SDS011;10479;53.524;9.846;2023-04-25T02:16:38;28.55;;;4.03;;
20639;SDS011;10479;53.524;9.846;2023-04-25T02:19:03;29.48;;;3.85;;
20639;SDS011;10479;53.524;9.846;2023-04-25T02:21:29;21.85;;;4.25;;
20639;SDS011;10479;53.524;9.846;2023-04-25T02:23:55;20.15;;;4.25;;
20639;SDS011;10479;53.524;9.846;2023-04-25T02:26:21;31.40;;;4.28;;
20639;SDS011;10479;53.524;9.846;2023-04-25T02:28:48;30.35;;;4.20;;
20639;SDS011;10479;53.524;9.846;2023-04-25T02:31:15;23.60;;;3.80;;
20639;SDS011;10479;53.524;9.846;2023-04-25T02:33:40;22.38;;;3.63;;
20639;SDS011;10479;53.524;9.846;2023-04-25T02:36:06;28.25;;;5.90;;
20639;SDS011;10479;53.524;9.846;2023-04-25T02:38:31;33.60;;;5.38;;
20639;SDS011;10479;53.524;9.846;2023-04-25T02:40:57;32.63;;;5.32;;
20639;SDS011;10479;53.524;9.846;2023-04-25T02:43:22;25.00;;;4.22;;
20639;SDS011;10479;53.524;9.846;2023-04-25T02:45:48;26.55;;;4.25;;
20639;SDS011;10479;53.524;9.846;2023-04-25T02:48:13;23.52;;;3.70;;
20639;SDS011;10479;53.524;9.846;2023-04-25T02:50:38;22.00;;;4.03;;
20639;SDS011;10479;53.524;9.846;2023-04-25T02:53:04;31.45;;;4.05;;
20639;SDS011;10479;53.524;9.846;2023-04-25T02:55:29;26.60;;;4.22;;
20639;SDS011;10479;53.524;9.846;2023-04-25T02:57:55;22.65;;;3.83;;
20639;SDS011;10479;53.524;9.846;2023-04-25T03:00:21;29.50;;;4.43;;
20639;SDS011;10479;53.524;9.846;2023-04-25T03:02:47;28.50;;;4.03;;
20639;SDS011;10479;53.524;9.846;2023-04-25T03:05:12;20.98;;;3.53;;
20639;SDS011;10479;53.524;9.846;2023-04-25T03:07:38;20.40;;;3.25;;
20639;SDS011;10479;53.524;9.846;2023-04-25T03:10:05;27.45;;;3.40;;
20639;SDS011;10479;53.524;9.846;2023-04-25T03:12:34;23.05;;;3.40;;
20639;SDS011;10479;53.524;9.846;2023-04-25T03:14:59;26.00;;;3.42;;
20639;SDS011;10479;53.524;9.846;2023-04-25T03:17:25;28.52;;;3.88;;
20639;SDS011;10479;53.524;9.846;2023-04-25T03:19:50;26.92;;;3.42;;
20639;SDS011;10479;53.524;9.846;2023-04-25T03:22:16;31.60;;;3.53;;
20639;SDS011;10479;53.524;9.846;2023-04-25T03:24:41;28.23;;;3.75;;
20639;SDS011;10479;53.524;9.846;2023-04-25T03:27:07;15.63;;;3.58;;
20639;SDS011;10479;53.524;9.846;2023-04-25T03:29:32;26.38;;;4.00;;
20639;SDS011;10479;53.524;9.846;2023-04-25T03:31:57;19.40;;;3.05;;
20639;SDS011;10479;53.524;9.846;2023-04-25T03:34:23;29.50;;;3.88;;
20639;SDS011;10479;53.524;9.846;2023-04-25T03:36:49;18.95;;;3.58;;
20639;SDS011;10479;53.524;9.846;2023-04-25T03:39:14;20.90;;;3.08;;
20639;SDS011;10479;53.524;9.846;2023-04-25T03:41:40;19.15;;;2.83;;
20639;SDS011;10479;53.524;9.846;2023-04-25T03:44:05;14.02;;;2.90;;
20639;SDS011;10479;53.524;9.846;2023-04-25T03:46:31;20.52;;;3.85;;
20639;SDS011;10479;53.524;9.846;2023-04-25T03:48:57;21.58;;;3.33;;
20639;SDS011;10479;53.524;9.846;2023-04-25T03:51:22;21.02;;;2.85;;
20639;SDS011;10479;53.524;9.846;2023-04-25T03:53:47;20.95;;;3.70;;
20639;SDS011;10479;53.524;9.846;2023-04-25T03:56:13;23.75;;;3.35;;
20639;SDS011;10479;53.524;9.846;2023-04-25T03:58:38;24.30;;;3.63;;
20639;SDS011;10479;53.524;9.846;2023-04-25T04:01:04;19.88;;;3.50;;
20639;SDS011;10479;53.524;9.846;2023-04-25T04:03:32;20.67;;;3.50;;
20639;SDS011;10479;53.524;9.846;2023-04-25T04:06:00;14.65;;;3.15;;
20639;SDS011;10479;53.524;9.846;2023-04-25T04:08:25;19.73;;;3.75;;
20639;SDS011;10479;53.524;9.846;2023-04-25T04:10:50;17.95;;;3.50;;
20639;SDS011;10479;53.524;9.846;2023-04-25T04:13:16;22.27;;;3.00;;
20639;SDS011;10479;53.524;9.846;2023-04-25T04:15:41;19.48;;;3.20;;
20639;SDS011;10479;53.524;9.846;2023-04-25T04:18:07;28.83;;;3.42;;
20639;SDS011;10479;53.524;9.846;2023-04-25T04:20:32;19.50;;;3.20;;
20639;SDS011;10479;53.524;9.846;2023-04-25T04:22:58;22.00;;;3.08;;
20639;SDS011;10479;53.524;9.846;2023-04-25T04:25:23;17.98;;;3.10;;
20639;SDS011;10479;53.524;9.846;2023-04-25T04:27:49;18.23;;;2.85;;
20639;SDS011;10479;53.524;9.846;2023-04-25T04:30:20;19.30;;;3.10;;
20639;SDS011;10479;53.524;9.846;2023-04-25T04:32:49;24.70;;;2.90;;
20639;SDS011;10479;53.524;9.846;2023-04-25T04:35:15;26.90;;;3.10;;
20639;SDS011;10479;53.524;9.846;2023-04-25T04:37:41;22.40;;;3.63;;
20639;SDS011;10479;53.524;9.846;2023-04-25T04:40:06;25.42;;;2.90;;
20639;SDS011;10479;53.524;9.846;2023-04-25T04:42:32;27.80;;;3.20;;
20639;SDS011;10479;53.524;9.846;2023-04-25T04:44:58;22.00;;;3.22;;
20639;SDS011;10479;53.524;9.846;2023-04-25T04:47:23;19.60;;;3.05;;
20639;SDS011;10479;53.524;9.846;2023-04-25T04:49:50;24.55;;;3.22;;
20639;SDS011;10479;53.524;9.846;2023-04-25T04:52:16;21.08;;;3.40;;
20639;SDS011;10479;53.524;9.846;2023-04-25T04:54:41;22.67;;;3.42;;
20639;SDS011;10479;53.524;9.846;2023-04-25T04:57:07;23.17;;;3.40;;
20639;SDS011;10479;53.524;9.846;2023-04-25T04:59:32;26.38;;;3.80;;
20639;SDS011;10479;53.524;9.846;2023-04-25T05:01:57;19.45;;;3.10;;
20639;SDS011;10479;53.524;9.846;2023-04-25T05:04:23;22.80;;;2.90;;
20639;SDS011;10479;53.524;9.846;2023-04-25T05:06:48;27.75;;;3.30;;
20639;SDS011;10479;53.524;9.846;2023-04-25T05:09:14;25.33;;;3.28;;
20639;SDS011;10479;53.524;9.846;2023-04-25T05:11:40;23.83;;;3.78;;
20639;SDS011;10479;53.524;9.846;2023-04-25T05:14:05;19.25;;;3.45;;
20639;SDS011;10479;53.524;9.846;2023-04-25T05:16:31;21.17;;;3.03;;
20639;SDS011;10479;53.524;9.846;2023-04-25T05:18:56;16.50;;;2.72;;
20639;SDS011;10479;53.524;9.846;2023-04-25T05:21:21;24.52;;;3.95;;
20639;SDS011;10479;53.524;9.846;2023-04-25T05:23:47;22.17;;;3.78;;
20639;SDS011;10479;53.524;9.846;2023-04-25T05:26:12;23.02;;;3.95;;
20639;SDS011;10479;53.524;9.846;2023-04-25T05:28:41;22.77;;;3.13;;
20639;SDS011;10479;53.524;9.846;2023-04-25T05:31:07;19.63;;;3.53;;
20639;SDS011;10479;53.524;9.846;2023-04-25T05:33:32;16.15;;;2.78;;
20639;SDS011;10479;53.524;9.846;2023-04-25T05:35:58;22.90;;;2.97;;
20639;SDS011;10479;53.524;9.846;2023-04-25T05:38:23;17.85;;;2.60;;
20639;SDS011;10479;53.524;9.846;2023-04-25T05:40:49;19.88;;;2.45;;
20639;SDS011;10479;53.524;9.846;2023-04-25T05:43:14;13.65;;;2.20;;
20639;SDS011;10479;53.524;9.846;2023-04-25T05:45:39;22.70;;;2.70;;
20639;SDS011;10479;53.524;9.846;2023-04-25T05:48:06;18.67;;;2.58;;
20639;SDS011;10479;53.524;9.846;2023-04-25T05:50:31;15.82;;;2.53;;
20639;SDS011;10479;53.524;9.846;2023-04-25T05:52:56;20.73;;;3.05;;
20639;SDS011;10479;53.524;9.846;2023-04-25T05:55:22;15.25;;;2.97;;
20639;SDS011;10479;53.524;9.846;2023-04-25T05:57:47;17.92;;;3.20;;
20639;SDS011;10479;53.524;9.846;2023-04-25T06:00:13;15.27;;;3.17;;
20639;SDS011;10479;53.524;9.846;2023-04-25T06:02:40;19.10;;;2.90;;
20639;SDS011;10479;53.524;9.846;2023-04-25T06:05:06;17.08;;;3.17;;
20639;SDS011;10479;53.524;9.846;2023-04-25T06:07:32;27.85;;;2.85;;
20639;SDS011;10479;53.524;9.846;2023-04-25T06:10:00;24.77;;;3.40;;
20639;SDS011;10479;53.524;9.846;2023-04-25T06:12:26;19.58;;;2.65;;
20639;SDS011;10479;53.524;9.846;2023-04-25T06:14:51;23.77;;;3.35;;
20639;SDS011;10479;53.524;9.846;2023-04-25T06:17:17;22.45;;;3.10;;
20639;SDS011;10479;53.524;9.846;2023-04-25T06:19:43;16.80;;;2.70;;
20639;SDS011;10479;53.524;9.846;2023-04-25T06:22:08;18.63;;;2.53;;
20639;SDS011;10479;53.524;9.846;2023-04-25T06:24:34;24.58;;;2.58;;
20639;SDS011;10479;53.524;9.846;2023-04-25T06:27:00;18.92;;;3.05;;
20639;SDS011;10479;53.524;9.846;2023-04-25T06:29:25;12.95;;;2.50;;
20639;SDS011;10479;53.524;9.846;2023-04-25T06:32:01;18.48;;;2.70;;
20639;SDS011;10479;53.524;9.846;2023-04-25T06:34:27;14.73;;;2.30;;
20639;SDS011;10479;53.524;9.846;2023-04-25T06:37:00;15.05;;;2.60;;
20639;SDS011;10479;53.524;9.846;2023-04-25T06:40:06;13.13;;;2.58;;
20639;SDS011;10479;53.524;9.846;2023-04-25T06:43:29;13.05;;;2.38;;
20639;SDS011;10479;53.524;9.846;2023-04-25T06:46:23;13.20;;;2.38;;
20639;SDS011;10479;53.524;9.846;2023-04-25T06:48:51;15.88;;;2.50;;
20639;SDS011;10479;53.524;9.846;2023-04-25T06:51:25;11.45;;;2.10;;
20639;SDS011;10479;53.524;9.846;2023-04-25T06:54:18;16.63;;;2.58;;
20639;SDS011;10479;53.524;9.846;2023-04-25T06:57:00;13.20;;;2.72;;
20639;SDS011;10479;53.524;9.846;2023-04-25T06:59:30;18.30;;;2.60;;
20639;SDS011;10479;53.524;9.846;2023-04-25T07:02:01;12.45;;;2.10;;
20639;SDS011;10479;53.524;9.846;2023-04-25T07:04:29;14.75;;;2.80;;
20639;SDS011;10479;53.524;9.846;2023-04-25T07:07:05;12.98;;;2.10;;
20639;SDS011;10479;53.524;9.846;2023-04-25T07:13:13;19.17;;;2.50;;
20639;SDS011;10479;53.524;9.846;2023-04-25T07:19:11;11.65;;;2.10;;
20639;SDS011;10479;53.524;9.846;2023-04-25T07:22:03;13.75;;;2.38;;
20639;SDS011;10479;53.524;9.846;2023-04-25T07:24:49;16.10;;;2.08;;
20639;SDS011;10479;53.524;9.846;2023-04-25T07:27:22;11.55;;;2.13;;
20639;SDS011;10479;53.524;9.846;2023-04-25T07:29:55;12.30;;;1.67;;
20639;SDS011;10479;53.524;9.846;2023-04-25T07:32:21;17.95;;;1.65;;
20639;SDS011;10479;53.524;9.846;2023-04-25T07:34:50;19.33;;;2.60;;
20639;SDS011;10479;53.524;9.846;2023-04-25T07:37:16;17.40;;;1.95;;
20639;SDS011;10479;53.524;9.846;2023-04-25T07:39:46;17.10;;;2.95;;
20639;SDS011;10479;53.524;9.846;2023-04-25T07:42:16;9.90;;;1.60;;
20639;SDS011;10479;53.524;9.846;2023-04-25T07:44:44;7.22;;;1.35;;
20639;SDS011;10479;53.524;9.846;2023-04-25T07:47:19;15.98;;;1.70;;
20639;SDS011;10479;53.524;9.846;2023-04-25T07:49:50;14.45;;;1.80;;
20639;SDS011;10479;53.524;9.846;2023-04-25T07:52:21;9.05;;;1.60;;
20639;SDS011;10479;53.524;9.846;2023-04-25T07:55:06;11.13;;;1.80;;
20639;SDS011;10479;53.524;9.846;2023-04-25T07:57:45;16.75;;;1.33;;
20639;SDS011;10479;53.524;9.846;2023-04-25T08:00:37;12.38;;;1.75;;
20639;SDS011;10479;53.524;9.846;2023-04-25T08:03:23;10.30;;;1.60;;
20639;SDS011;10479;53.524;9.846;2023-04-25T08:06:52;12.40;;;1.85;;
20639;SDS011;10479;53.524;9.846;2023-04-25T08:09:43;10.07;;;1.73;;
20639;SDS011;10479;53.524;9.846;2023-04-25T08:12:08;14.65;;;1.95;;
20639;SDS011;10479;53.524;9.846;2023-04-25T08:14:34;12.98;;;1.42;;
20639;SDS011;10479;53.524;9.846;2023-04-25T08:17:04;13.65;;;1.88;;
20639;SDS011;10479;53.524;9.846;2023-04-25T08:19:33;10.60;;;1.40;;
20639;SDS011;10479;53.524;9.846;2023-04-25T08:21:58;15.38;;;1.48;;
20639;SDS011;10479;53.524;9.846;2023-04-25T08:24:24;11.02;;;1.30;;
20639;SDS011;10479;53.524;9.846;2023-04-25T08:26:50;6.72;;;1.33;;
20639;SDS011;10479;53.524;9.846;2023-04-25T08:29:16;9.38;;;1.20;;
20639;SDS011;10479;53.524;9.846;2023-04-25T08:31:42;7.93;;;1.55;;
20639;SDS011;10479;53.524;9.846;2023-04-25T08:34:08;6.57;;;1.20;;
20639;SDS011;10479;53.524;9.846;2023-04-25T08:36:36;10.10;;;2.13;;
20639;SDS011;10479;53.524;9.846;2023-04-25T08:39:11;11.30;;;1.83;;
20639;SDS011;10479;53.524;9.846;2023-04-25T08:41:37;11.40;;;1.60;;
20639;SDS011;10479;53.524;9.846;2023-04-25T08:44:03;20.50;;;1.98;;
20639;SDS011;10479;53.524;9.846;2023-04-25T08:46:38;12.73;;;1.50;;
20639;SDS011;10479;53.524;9.846;2023-04-25T08:49:07;10.52;;;1.38;;
20639;SDS011;10479;53.524;9.846;2023-04-25T08:51:39;12.35;;;1.63;;
20639;SDS011;10479;53.524;9.846;2023-04-25T08:54:14;15.75;;;1.38;;
20639;SDS011;10479;53.524;9.846;2023-04-25T08:56:45;10.80;;;1.50;;
20639;SDS011;10479;53.524;9.846;2023-04-25T08:59:28;15.20;;;2.10;;
20639;SDS011;10479;53.524;9.846;2023-04-25T09:01:54;7.70;;;1.30;;
20639;SDS011;10479;53.524;9.846;2023-04-25T09:04:44;11.38;;;1.40;;
20639;SDS011;10479;53.524;9.846;2023-04-25T09:07:25;12.13;;;1.45;;
20639;SDS011;10479;53.524;9.846;2023-04-25T09:09:53;6.38;;;1.20;;
20639;SDS011;10479;53.524;9.846;2023-04-25T09:12:34;8.63;;;1.45;;
20639;SDS011;10479;53.524;9.846;2023-04-25T09:15:24;5.80;;;1.38;;
20639;SDS011;10479;53.524;9.846;2023-04-25T09:17:59;7.10;;;1.20;;
20639;SDS011;10479;53.524;9.846;2023-04-25T09:20:32;13.57;;;1.48;;
20639;SDS011;10479;53.524;9.846;2023-04-25T09:23:06;10.32;;;1.50;;
20639;SDS011;10479;53.524;9.846;2023-04-25T09:25:35;10.32;;;1.27;;
20639;SDS011;10479;53.524;9.846;2023-04-25T09:28:07;6.93;;;1.45;;
20639;SDS011;10479;53.524;9.846;2023-04-25T09:30:56;10.73;;;1.40;;
20639;SDS011;10479;53.524;9.846;2023-04-25T09:33:35;16.20;;;1.48;;
20639;SDS011;10479;53.524;9.846;2023-04-25T09:36:07;12.38;;;1.77;;
20639;SDS011;10479;53.524;9.846;2023-04-25T09:38:49;7.40;;;1.58;;
20639;SDS011;10479;53.524;9.846;2023-04-25T09:41:22;10.98;;;1.13;;
20639;SDS011;10479;53.524;9.846;2023-04-25T09:44:28;7.15;;;1.15;;
20639;SDS011;10479;53.524;9.846;2023-04-25T09:51:48;13.90;;;1.77;;
20639;SDS011;10479;53.524;9.846;2023-04-25T09:58:55;8.73;;;1.13;;
20639;SDS011;10479;53.524;9.846;2023-04-25T10:14:46;6.07;;;1.45;;
20639;SDS011;10479;53.524;9.846;2023-04-25T10:18:03;12.85;;;1.77;;
20639;SDS011;10479;53.524;9.846;2023-04-25T10:20:30;11.23;;;1.27;;
20639;SDS011;10479;53.524;9.846;2023-04-25T10:22:58;8.88;;;1.40;;
20639;SDS011;10479;53.524;9.846;2023-04-25T10:25:28;11.93;;;2.00;;
20639;SDS011;10479;53.524;9.846;2023-04-25T10:27:54;9.43;;;1.52;;
20639;SDS011;10479;53.524;9.846;2023-04-25T10:30:22;11.43;;;1.65;;
20639;SDS011;10479;53.524;9.846;2023-04-25T10:32:47;10.50;;;1.55;;
20639;SDS011;10479;53.524;9.846;2023-04-25T10:37:58;5.78;;;1.13;;
20639;SDS011;10479;53.524;9.846;2023-04-25T10:40:30;9.35;;;1.00;;
20639;SDS011;10479;53.524;9.846;2023-04-25T10:43:32;3.15;;;0.68;;
20639;SDS011;10479;53.524;9.846;2023-04-25T10:45:57;8.77;;;0.93;;
20639;SDS011;10479;53.524;9.846;2023-04-25T10:48:29;12.25;;;1.20;;
20639;SDS011;10479;53.524;9.846;2023-04-25T10:51:10;9.30;;;1.25;;
20639;SDS011;10479;53.524;9.846;2023-04-25T11:44:37;2.05;;;0.50;;
20639;SDS011;10479;53.524;9.846;2023-04-25T11:47:04;2.25;;;0.47;;
20639;SDS011;10479;53.524;9.846;2023-04-25T11:49:30;4.28;;;0.68;;
20639;SDS011;10479;53.524;9.846;2023-04-25T11:51:57;8.00;;;1.52;;
20639;SDS011;10479;53.524;9.846;2023-04-25T11:54:22;7.03;;;0.88;;
20639;SDS011;10479;53.524;9.846;2023-04-25T11:56:47;8.52;;;1.20;;
20639;SDS011;10479;53.524;9.846;2023-04-25T11:59:13;10.43;;;1.15;;
20639;SDS011;10479;53.524;9.846;2023-04-25T12:01:40;10.50;;;1.40;;
20639;SDS011;10479;53.524;9.846;2023-04-25T12:04:13;9.30;;;1.73;;
20639;SDS011;10479;53.524;9.846;2023-04-25T12:06:40;10.15;;;1.77;;
20639;SDS011;10479;53.524;9.846;2023-04-25T12:09:10;10.68;;;1.42;;
20639;SDS011;10479;53.524;9.846;2023-04-25T12:11:43;7.88;;;1.02;;
20639;SDS011;10479;53.524;9.846;2023-04-25T12:14:09;4.93;;;0.93;;
20639;SDS011;10479;53.524;9.846;2023-04-25T12:16:45;9.23;;;1.23;;
20639;SDS011;10479;53.524;9.846;2023-04-25T12:19:17;4.95;;;0.98;;
20639;SDS011;10479;53.524;9.846;2023-04-25T12:21:44;5.90;;;1.05;;
20639;SDS011;10479;53.524;9.846;2023-04-25T12:24:10;9.95;;;1.38;;
20639;SDS011;10479;53.524;9.846;2023-04-25T12:26:48;9.68;;;1.30;;
20639;SDS011;10479;53.524;9.846;2023-04-25T12:29:27;7.30;;;1.00;;
20639;SDS011;10479;53.524;9.846;2023-04-25T12:31:54;9.27;;;1.65;;
20639;SDS011;10479;53.524;9.846;2023-04-25T12:34:21;7.72;;;1.50;;
20639;SDS011;10479;53.524;9.846;2023-04-25T12:36:47;8.20;;;1.05;;
20639;SDS011;10479;53.524;9.846;2023-04-25T12:39:14;5.90;;;0.95;;
20639;SDS011;10479;53.524;9.846;2023-04-25T12:41:50;11.00;;;1.23;;
20639;SDS011;10479;53.524;9.846;2023-04-25T12:44:25;9.10;;;1.17;;
20639;SDS011;10479;53.524;9.846;2023-04-25T12:46:50;10.07;;;1.20;;
20639;SDS011;10479;53.524;9.846;2023-04-25T12:49:16;9.50;;;1.40;;
20639;SDS011;10479;53.524;9.846;2023-04-25T12:51:41;8.55;;;1.13;;
20639;SDS011;10479;53.524;9.846;2023-04-25T12:54:07;7.55;;;1.35;;
20639;SDS011;10479;53.524;9.846;2023-04-25T12:56:34;13.90;;;1.50;;
20639;SDS011;10479;53.524;9.846;2023-04-25T12:59:00;11.65;;;1.65;;
20639;SDS011;10479;53.524;9.846;2023-04-25T13:01:28;15.73;;;2.17;;
20639;SDS011;10479;53.524;9.846;2023-04-25T13:03:54;10.88;;;1.80;;
20639;SDS011;10479;53.524;9.846;2023-04-25T13:06:20;8.38;;;1.45;;
20639;SDS011;10479;53.524;9.846;2023-04-25T13:08:46;9.75;;;1.25;;
20639;SDS011;10479;53.524;9.846;2023-04-25T13:11:12;10.45;;;1.55;;
20639;SDS011;10479;53.524;9.846;2023-04-25T13:13:39;10.80;;;1.52;;
20639;SDS011;10479;53.524;9.846;2023-04-25T13:16:05;6.13;;;1.10;;
20639;SDS011;10479;53.524;9.846;2023-04-25T13:18:32;7.88;;;1.83;;
20639;SDS011;10479;53.524;9.846;2023-04-25T13:20:57;8.10;;;1.05;;
20639;SDS011;10479;53.524;9.846;2023-04-25T13:23:25;7.05;;;1.20;;
20639;SDS011;10479;53.524;9.846;2023-04-25T13:25:51;8.68;;;1.20;;
20639;SDS011;10479;53.524;9.846;2023-04-25T13:28:17;10.13;;;1.48;;
20639;SDS011;10479;53.524;9.846;2023-04-25T13:30:42;9.25;;;1.63;;
20639;SDS011;10479;53.524;9.846;2023-04-25T13:33:08;9.13;;;1.50;;
20639;SDS011;10479;53.524;9.846;2023-04-25T13:35:35;12.38;;;1.92;;
20639;SDS011;10479;53.524;9.846;2023-04-25T13:38:01;11.90;;;1.92;;
20639;SDS011;10479;53.524;9.846;2023-04-25T13:40:27;8.73;;;1.60;;
20639;SDS011;10479;53.524;9.846;2023-04-25T13:42:54;6.45;;;1.15;;
20639;SDS011;10479;53.524;9.846;2023-04-25T13:45:26;12.00;;;2.00;;
20639;SDS011;10479;53.524;9.846;2023-04-25T13:47:52;9.68;;;1.10;;
20639;SDS011;10479;53.524;9.846;2023-04-25T13:50:17;6.88;;;1.80;;
20639;SDS011;10479;53.524;9.846;2023-04-25T13:52:43;8.43;;;1.60;;
20639;SDS011;10479;53.524;9.846;2023-04-25T13:55:08;6.60;;;1.20;;
20639;SDS011;10479;53.524;9.846;2023-04-25T13:57:35;14.57;;;2.25;;
20639;SDS011;10479;53.524;9.846;2023-04-25T14:00:04;11.88;;;1.30;;
20639;SDS011;10479;53.524;9.846;2023-04-25T14:02:34;10.18;;;1.35;;
20639;SDS011;10479;53.524;9.846;2023-04-25T14:05:15;9.48;;;1.38;;
20639;SDS011;10479;53.524;9.846;2023-04-25T14:07:58;11.07;;;1.60;;
20639;SDS011;10479;53.524;9.846;2023-04-25T14:10:30;11.95;;;2.10;;
20639;SDS011;10479;53.524;9.846;2023-04-25T14:12:58;11.07;;;1.40;;
20639;SDS011;10479;53.524;9.846;2023-04-25T14:15:24;8.82;;;1.42;;
20639;SDS011;10479;53.524;9.846;2023-04-25T14:17:49;10.13;;;1.42;;
20639;SDS011;10479;53.524;9.846;2023-04-25T14:20:14;12.65;;;1.90;;
20639;SDS011;10479;53.524;9.846;2023-04-25T14:22:40;9.90;;;1.40;;
20639;SDS011;10479;53.524;9.846;2023-04-25T14:25:08;13.70;;;2.17;;
20639;SDS011;10479;53.524;9.846;2023-04-25T14:27:34;8.23;;;1.48;;
20639;SDS011;10479;53.524;9.846;2023-04-25T14:30:00;5.32;;;1.10;;
20639;SDS011;10479;53.524;9.846;2023-04-25T14:32:25;6.40;;;1.10;;
20639;SDS011;10479;53.524;9.846;2023-04-25T14:34:50;6.18;;;1.75;;
20639;SDS011;10479;53.524;9.846;2023-04-25T14:37:16;7.72;;;1.30;;
20639;SDS011;10479;53.524;9.846;2023-04-25T14:39:41;6.55;;;0.93;;
20639;SDS011;10479;53.524;9.846;2023-04-25T14:42:07;8.15;;;1.23;;
20639;SDS011;10479;53.524;9.846;2023-04-25T14:44:32;7.82;;;1.10;;
20639;SDS011;10479;53.524;9.846;2023-04-25T14:46:58;9.98;;;1.10;;
20639;SDS011;10479;53.524;9.846;2023-04-25T14:49:23;7.82;;;1.20;;
20639;SDS011;10479;53.524;9.846;2023-04-25T14:51:49;8.60;;;1.25;;
20639;SDS011;10479;53.524;9.846;2023-04-25T14:54:14;8.38;;;1.50;;
20639;SDS011;10479;53.524;9.846;2023-04-25T14:56:40;11.35;;;1.35;;
20639;SDS011;10479;53.524;9.846;2023-04-25T14:59:06;8.65;;;1.38;;
20639;SDS011;10479;53.524;9.846;2023-04-25T15:01:31;12.85;;;1.42;;
20639;SDS011;10479;53.524;9.846;2023-04-25T15:03:57;7.38;;;1.60;;
20639;SDS011;10479;53.524;9.846;2023-04-25T15:06:22;10.27;;;1.90;;
20639;SDS011;10479;53.524;9.846;2023-04-25T15:08:51;8.27;;;1.60;;
20639;SDS011;10479;53.524;9.846;2023-04-25T15:11:16;13.75;;;2.08;;
20639;SDS011;10479;53.524;9.846;2023-04-25T15:13:42;8.82;;;1.35;;
20639;SDS011;10479;53.524;9.846;2023-04-25T15:16:08;2.83;;;1.00;;
20639;SDS011;10479;53.524;9.846;2023-04-25T15:18:33;9.68;;;1.13;;
20639;SDS011;10479;53.524;9.846;2023-04-25T15:20:58;8.02;;;1.20;;
20639;SDS011;10479;53.524;9.846;2023-04-25T15:23:24;13.93;;;2.08;;
20639;SDS011;10479;53.524;9.846;2023-04-25T15:25:50;11.32;;;1.42;;
20639;SDS011;10479;53.524;9.846;2023-04-25T15:28:16;10.23;;;1.35;;
20639;SDS011;10479;53.524;9.846;2023-04-25T15:30:45;9.73;;;1.67;;
20639;SDS011;10479;53.524;9.846;2023-04-25T15:33:10;8.93;;;1.17;;
20639;SDS011;10479;53.524;9.846;2023-04-25T15:35:35;9.57;;;1.65;;
20639;SDS011;10479;53.524;9.846;2023-04-25T15:38:01;13.45;;;1.63;;
20639;SDS011;10479;53.524;9.846;2023-04-25T15:40:26;9.02;;;1.55;;
20639;SDS011;10479;53.524;9.846;2023-04-25T15:42:52;13.43;;;1.83;;
20639;SDS011;10479;53.524;9.846;2023-04-25T15:45:20;12.32;;;1.67;;
20639;SDS011;10479;53.524;9.846;2023-04-25T15:47:46;12.20;;;1.92;;
20639;SDS011;10479;53.524;9.846;2023-04-25T15:50:12;13.15;;;1.60;;
20639;SDS011;10479;53.524;9.846;2023-04-25T15:52:39;11.13;;;1.73;;
20639;SDS011;10479;53.524;9.846;2023-04-25T15:55:05;7.10;;;1.05;;
20639;SDS011;10479;53.524;9.846;2023-04-25T15:57:32;15.45;;;1.63;;
20639;SDS011;10479;53.524;9.846;2023-04-25T15:59:58;15.23;;;1.60;;
20639;SDS011;10479;53.524;9.846;2023-04-25T16:02:23;15.63;;;2.13;;
20639;SDS011;10479;53.524;9.846;2023-04-25T16:04:49;13.93;;;1.90;;
20639;SDS011;10479;53.524;9.846;2023-04-25T16:07:15;11.40;;;1.70;;
20639;SDS011;10479;53.524;9.846;2023-04-25T16:09:41;13.65;;;1.50;;
20639;SDS011;10479;53.524;9.846;2023-04-25T16:12:10;7.38;;;1.33;;
20639;SDS011;10479;53.524;9.846;2023-04-25T16:14:35;9.55;;;1.52;;
20639;SDS011;10479;53.524;9.846;2023-04-25T16:17:01;9.50;;;1.65;;